Time;durP1;ratioP1;P1;durP2;ratioP2;P2;SDS_P1;SDS_P2;PMS_P1;PMS_P2;Temp;Humidity;BMP_temperature;BMP_pressure;BME280_temperature;BME280_humidity;BME280_pressure;Samples;Min_cycle;Max_cycle;Signal;HPM_P1;HPM_P2
2022/03/14 00:00:04;;;;;;;;;;;6.90;99.90;;;;;;5094105;28;19924;-79
2022/03/14 00:02:30;;;;;;;;;;;6.90;99.90;;;;;;5094583;28;20273;-80
2022/03/14 00:04:55;;;;;;;;;;;6.90;99.90;;;;;;5093550;28;19916;-81
2022/03/14 00:07:22;;;;;;;;;;;6.90;99.90;;;;;;5093815;28;19970;-81
2022/03/14 00:09:48;;;;;;;;;;;6.90;99.90;;;;;;5094458;28;20006;-80
2022/03/14 00:12:23;;;;;;;;;;;6.90;99.90;;;;;;5094036;28;19989;-81
2022/03/14 00:14:53;;;;;;;;;;;6.80;99.90;;;;;;5094495;28;20372;-81
2022/03/14 00:17:18;;;;;;;;;;;6.80;99.90;;;;;;5093835;28;20725;-80
2022/03/14 00:19:45;;;;;;;;;;;6.80;99.90;;;;;;5094488;28;19999;-80
2022/03/14 00:22:10;;;;;;;;;;;6.80;99.90;;;;;;5092152;28;19920;-80
2022/03/14 00:24:36;;;;;;;;;;;6.80;99.90;;;;;;5093483;28;20300;-80
2022/03/14 00:27:02;;;;;;;;;;;6.70;99.90;;;;;;5093579;28;19908;-79
2022/03/14 00:29:28;;;;;;;;;;;6.70;99.90;;;;;;5094267;28;20312;-81
2022/03/14 00:31:53;;;;;;;;;;;6.70;99.90;;;;;;5092985;28;19908;-80
2022/03/14 00:34:19;;;;;;;;;;;6.70;99.90;;;;;;5093642;28;20568;-81
2022/03/14 00:36:44;;;;;;;;;;;6.70;99.90;;;;;;5095936;28;19912;-78
2022/03/14 00:39:10;;;;;;;;;;;6.70;99.90;;;;;;5114566;28;20010;-81
2022/03/14 00:41:36;;;;;;;;;;;6.70;99.90;;;;;;5094097;28;20357;-81
2022/03/14 00:44:02;;;;;;;;;;;6.60;99.90;;;;;;5093433;28;19968;-78
2022/03/14 00:46:28;;;;;;;;;;;6.60;99.90;;;;;;5093396;28;20434;-80
2022/03/14 00:48:55;;;;;;;;;;;6.60;99.90;;;;;;5093782;28;19912;-81
2022/03/14 00:51:21;;;;;;;;;;;6.60;99.90;;;;;;5093195;28;19908;-81
2022/03/14 00:53:47;;;;;;;;;;;6.60;99.90;;;;;;5093460;28;19912;-80
2022/03/14 00:56:13;;;;;;;;;;;6.60;99.90;;;;;;5093197;28;19913;-80
2022/03/14 00:58:39;;;;;;;;;;;6.60;99.90;;;;;;5093810;28;19908;-80
2022/03/14 01:01:05;;;;;;;;;;;6.60;99.90;;;;;;5091595;28;19969;-80
2022/03/14 01:03:30;;;;;;;;;;;6.60;99.90;;;;;;5093610;28;20130;-81
2022/03/14 01:05:56;;;;;;;;;;;6.60;99.90;;;;;;5093715;28;19914;-78
2022/03/14 01:08:22;;;;;;;;;;;6.50;99.90;;;;;;5093435;28;19913;-78
2022/03/14 01:10:48;;;;;;;;;;;6.50;99.90;;;;;;5093981;28;19908;-78
2022/03/14 01:13:14;;;;;;;;;;;6.50;99.90;;;;;;5093106;28;19916;-78
2022/03/14 01:15:40;;;;;;;;;;;6.40;99.90;;;;;;5093603;28;19916;-78
2022/03/14 01:18:05;;;;;;;;;;;6.40;99.90;;;;;;5093027;28;19908;-78
2022/03/14 01:20:32;;;;;;;;;;;6.40;99.90;;;;;;5093423;28;19912;-78
2022/03/14 01:22:58;;;;;;;;;;;6.40;99.90;;;;;;5093483;28;19914;-78
2022/03/14 01:25:24;;;;;;;;;;;6.40;99.90;;;;;;5092626;28;19995;-78
2022/03/14 01:27:50;;;;;;;;;;;6.40;99.90;;;;;;5093462;28;19908;-78
2022/03/14 01:30:16;;;;;;;;;;;6.40;99.90;;;;;;5092486;28;19909;-78
2022/03/14 01:32:42;;;;;;;;;;;6.40;99.90;;;;;;5093195;28;19919;-78
2022/03/14 01:35:08;;;;;;;;;;;6.40;99.90;;;;;;5091804;28;19912;-78
2022/03/14 01:37:33;;;;;;;;;;;6.30;99.90;;;;;;5093251;28;19908;-78
2022/03/14 01:39:59;;;;;;;;;;;6.30;99.90;;;;;;5093587;28;20345;-78
2022/03/14 01:42:25;;;;;;;;;;;6.30;99.90;;;;;;5092635;28;19919;-78
2022/03/14 01:44:50;;;;;;;;;;;6.30;99.90;;;;;;5093010;28;19912;-78
2022/03/14 01:47:16;;;;;;;;;;;6.30;99.90;;;;;;5092473;28;20369;-78
2022/03/14 01:49:43;;;;;;;;;;;6.20;99.90;;;;;;5092839;28;19908;-78
2022/03/14 01:52:09;;;;;;;;;;;6.20;99.90;;;;;;5092520;28;19915;-78
2022/03/14 01:54:34;;;;;;;;;;;6.20;99.90;;;;;;5100517;28;19896;-81
2022/03/14 01:57:00;;;;;;;;;;;6.20;99.90;;;;;;5093558;28;19912;-78
2022/03/14 01:59:29;;;;;;;;;;;6.10;99.90;;;;;;5092121;28;19908;-77
2022/03/14 02:01:55;;;;;;;;;;;6.10;99.90;;;;;;5091412;28;19995;-78
2022/03/14 02:04:22;;;;;;;;;;;6.10;99.90;;;;;;5092279;28;19920;-78
2022/03/14 02:06:49;;;;;;;;;;;6.10;99.90;;;;;;5092816;28;19909;-78
2022/03/14 02:09:15;;;;;;;;;;;6.00;99.90;;;;;;5092083;28;19995;-78
2022/03/14 02:11:50;;;;;;;;;;;6.00;99.90;;;;;;5092930;28;20340;-78
2022/03/14 02:14:16;;;;;;;;;;;5.90;99.90;;;;;;5092196;28;19959;-78
2022/03/14 02:16:41;;;;;;;;;;;5.80;99.90;;;;;;5092600;28;19963;-78
2022/03/14 02:19:07;;;;;;;;;;;5.80;99.90;;;;;;5091909;28;19908;-76
2022/03/14 02:21:32;;;;;;;;;;;5.80;99.90;;;;;;5093110;28;19915;-78
2022/03/14 02:23:58;;;;;;;;;;;5.80;99.90;;;;;;5091233;28;20293;-78
2022/03/14 02:26:23;;;;;;;;;;;5.80;99.90;;;;;;5092250;28;19970;-78
2022/03/14 02:28:50;;;;;;;;;;;5.80;99.90;;;;;;5092418;28;19926;-78
2022/03/14 02:31:15;;;;;;;;;;;5.80;99.90;;;;;;5092313;28;19966;-78
2022/03/14 02:33:41;;;;;;;;;;;5.90;99.90;;;;;;5092532;28;20022;-78
2022/03/14 02:36:07;;;;;;;;;;;6.00;99.90;;;;;;5092771;28;19912;-76
2022/03/14 02:38:32;;;;;;;;;;;6.00;99.90;;;;;;5091093;28;19909;-78
2022/03/14 02:40:58;;;;;;;;;;;6.10;99.90;;;;;;5092945;28;19915;-78
2022/03/14 02:43:24;;;;;;;;;;;6.10;99.90;;;;;;5091983;28;19908;-78
2022/03/14 02:45:51;;;;;;;;;;;6.10;99.90;;;;;;5092213;28;19908;-79
2022/03/14 02:48:17;;;;;;;;;;;6.10;99.90;;;;;;5095334;28;19923;-78
2022/03/14 02:50:43;;;;;;;;;;;6.20;99.90;;;;;;5096348;28;20132;-78
2022/03/14 02:53:09;;;;;;;;;;;6.20;99.90;;;;;;5096043;28;20014;-77
2022/03/14 02:55:38;;;;;;;;;;;6.20;99.90;;;;;;5096518;28;19918;-78
2022/03/14 02:58:03;;;;;;;;;;;6.10;99.90;;;;;;5096420;28;19908;-78
2022/03/14 03:00:29;;;;;;;;;;;6.20;99.90;;;;;;5095480;28;19920;-78
2022/03/14 03:02:55;;;;;;;;;;;6.20;99.90;;;;;;5096430;28;20273;-78
2022/03/14 03:05:21;;;;;;;;;;;6.10;99.90;;;;;;5095840;28;19918;-78
2022/03/14 03:07:48;;;;;;;;;;;6.10;99.90;;;;;;5100064;28;19931;-76
2022/03/14 03:10:22;;;;;;;;;;;6.10;99.90;;;;;;5109373;28;19943;-78
2022/03/14 03:12:47;;;;;;;;;;;6.00;99.90;;;;;;5096287;28;19912;-78
2022/03/14 03:15:15;;;;;;;;;;;6.10;99.90;;;;;;5095657;28;20257;-78
2022/03/14 03:17:41;;;;;;;;;;;6.10;99.90;;;;;;5095954;28;19912;-79
2022/03/14 03:20:07;;;;;;;;;;;6.10;99.90;;;;;;5096358;28;19961;-78
2022/03/14 03:22:33;;;;;;;;;;;6.10;99.90;;;;;;5095630;28;19908;-78
2022/03/14 03:24:58;;;;;;;;;;;6.00;99.90;;;;;;5095517;28;19912;-78
2022/03/14 03:27:24;;;;;;;;;;;6.10;99.90;;;;;;5095473;28;19908;-78
2022/03/14 03:29:50;;;;;;;;;;;6.00;99.90;;;;;;5095972;28;19915;-78
2022/03/14 03:32:15;;;;;;;;;;;6.00;99.90;;;;;;5095133;28;19908;-78
2022/03/14 03:34:41;;;;;;;;;;;6.10;99.90;;;;;;5095907;28;20081;-79
2022/03/14 03:37:06;;;;;;;;;;;6.10;99.90;;;;;;5094655;28;20254;-79
2022/03/14 03:39:32;;;;;;;;;;;6.00;99.90;;;;;;5095224;28;20195;-79
2022/03/14 03:41:57;;;;;;;;;;;6.10;99.90;;;;;;5095374;28;20339;-78
2022/03/14 03:44:23;;;;;;;;;;;6.00;99.90;;;;;;5095192;28;19908;-78
2022/03/14 03:46:49;;;;;;;;;;;6.00;99.90;;;;;;5094320;28;19915;-78
2022/03/14 03:49:14;;;;;;;;;;;6.00;99.90;;;;;;5094949;28;19957;-78
2022/03/14 03:51:40;;;;;;;;;;;6.00;99.90;;;;;;5095730;28;19954;-78
2022/03/14 03:54:06;;;;;;;;;;;6.00;99.90;;;;;;5095177;28;19916;-78
2022/03/14 03:56:34;;;;;;;;;;;6.00;99.90;;;;;;5093415;28;20511;-78
2022/03/14 03:58:59;;;;;;;;;;;5.90;99.90;;;;;;5094551;28;19908;-78
2022/03/14 04:01:27;;;;;;;;;;;6.00;99.90;;;;;;5094886;28;20289;-78
2022/03/14 04:03:56;;;;;;;;;;;6.00;99.90;;;;;;5095318;28;19916;-78
2022/03/14 04:06:25;;;;;;;;;;;6.00;99.90;;;;;;5094751;28;19951;-79
2022/03/14 04:08:52;;;;;;;;;;;6.00;99.90;;;;;;5095232;28;19919;-78
2022/03/14 04:11:18;;;;;;;;;;;6.00;99.90;;;;;;5094667;28;19908;-78
2022/03/14 04:13:45;;;;;;;;;;;6.00;99.90;;;;;;5095199;28;19912;-78
2022/03/14 04:16:11;;;;;;;;;;;5.90;99.90;;;;;;5095038;28;19916;-78
2022/03/14 04:18:37;;;;;;;;;;;5.90;99.90;;;;;;5093057;28;20269;-78
2022/03/14 04:21:02;;;;;;;;;;;5.90;99.90;;;;;;5095277;28;19908;-78
2022/03/14 04:23:29;;;;;;;;;;;5.90;99.90;;;;;;5113094;28;19915;-78
2022/03/14 04:25:55;;;;;;;;;;;5.90;99.90;;;;;;5095483;28;19915;-78
2022/03/14 04:28:21;;;;;;;;;;;5.90;99.90;;;;;;5093995;28;20343;-78
2022/03/14 04:30:46;;;;;;;;;;;5.90;99.90;;;;;;5094612;28;19908;-78
2022/03/14 04:33:12;;;;;;;;;;;5.90;99.90;;;;;;5094727;28;19919;-78
2022/03/14 04:35:38;;;;;;;;;;;6.00;99.90;;;;;;5094232;28;19995;-78
2022/03/14 04:38:04;;;;;;;;;;;5.90;99.90;;;;;;5093364;28;19908;-78
2022/03/14 04:40:32;;;;;;;;;;;5.90;99.90;;;;;;5094063;28;19908;-78
2022/03/14 04:42:58;;;;;;;;;;;5.90;99.90;;;;;;5094499;28;20043;-78
2022/03/14 04:45:23;;;;;;;;;;;5.90;99.90;;;;;;5094120;28;20442;-78
2022/03/14 04:47:50;;;;;;;;;;;5.90;99.90;;;;;;5094483;28;19908;-79
2022/03/14 04:50:16;;;;;;;;;;;6.00;99.90;;;;;;5093797;28;19930;-76
2022/03/14 04:52:41;;;;;;;;;;;5.90;99.90;;;;;;5093837;28;19966;-78
2022/03/14 04:55:07;;;;;;;;;;;5.90;99.90;;;;;;5094722;28;20368;-78
2022/03/14 04:57:33;;;;;;;;;;;5.90;99.90;;;;;;5093648;28;19947;-78
2022/03/14 04:59:58;;;;;;;;;;;6.00;99.90;;;;;;5094244;28;19924;-78
2022/03/14 05:02:24;;;;;;;;;;;6.00;99.90;;;;;;5092325;28;19946;-77
2022/03/14 05:04:50;;;;;;;;;;;6.00;99.90;;;;;;5094193;28;19953;-78
2022/03/14 05:07:16;;;;;;;;;;;6.00;99.90;;;;;;5094182;28;19914;-78
2022/03/14 05:09:41;;;;;;;;;;;6.00;99.90;;;;;;5093487;28;19908;-77
2022/03/14 05:12:07;;;;;;;;;;;5.90;99.90;;;;;;5094083;28;19915;-78
2022/03/14 05:14:34;;;;;;;;;;;5.90;99.90;;;;;;5092213;28;19947;-78
2022/03/14 05:17:00;;;;;;;;;;;5.90;99.90;;;;;;5093411;28;20014;-77
2022/03/14 05:19:25;;;;;;;;;;;5.90;99.90;;;;;;5093084;28;19951;-78
2022/03/14 05:21:51;;;;;;;;;;;5.90;99.90;;;;;;5092500;28;19915;-78
2022/03/14 05:24:16;;;;;;;;;;;5.90;99.90;;;;;;5092586;28;19915;-77
2022/03/14 05:26:43;;;;;;;;;;;5.80;99.90;;;;;;5093295;28;19908;-77
2022/03/14 05:29:12;;;;;;;;;;;5.80;99.90;;;;;;5093757;28;20238;-77
2022/03/14 05:31:38;;;;;;;;;;;5.80;99.90;;;;;;5093098;28;19969;-77
2022/03/14 05:34:04;;;;;;;;;;;5.70;99.90;;;;;;5093626;28;19916;-78
2022/03/14 05:36:29;;;;;;;;;;;5.60;99.90;;;;;;5092963;28;19919;-77
2022/03/14 05:38:55;;;;;;;;;;;5.70;99.90;;;;;;5096745;28;19908;-78
2022/03/14 05:41:20;;;;;;;;;;;5.70;99.90;;;;;;5094328;28;20402;-76
2022/03/14 05:43:46;;;;;;;;;;;5.70;99.90;;;;;;5093438;28;19915;-77
2022/03/14 05:46:11;;;;;;;;;;;5.70;99.90;;;;;;5093602;28;19912;-77
2022/03/14 05:48:37;;;;;;;;;;;5.70;99.90;;;;;;5092599;28;20230;-77
2022/03/14 05:51:03;;;;;;;;;;;5.70;99.90;;;;;;5092795;28;19920;-77
2022/03/14 05:53:29;;;;;;;;;;;5.70;99.90;;;;;;5092336;28;19916;-77
2022/03/14 05:55:54;;;;;;;;;;;5.70;99.90;;;;;;5092921;28;19987;-78
2022/03/14 05:58:20;;;;;;;;;;;5.70;99.90;;;;;;5092981;28;19912;-76
2022/03/14 06:00:48;;;;;;;;;;;5.70;99.90;;;;;;5092563;28;19927;-77
2022/03/14 06:03:14;;;;;;;;;;;5.70;99.90;;;;;;5093177;28;20388;-78
2022/03/14 06:05:40;;;;;;;;;;;5.80;99.90;;;;;;5092582;28;19908;-78
2022/03/14 06:08:06;;;;;;;;;;;5.70;99.90;;;;;;5092857;28;19943;-78
2022/03/14 06:10:32;;;;;;;;;;;5.70;99.90;;;;;;5092532;28;19915;-77
2022/03/14 06:12:58;;;;;;;;;;;5.80;99.90;;;;;;5092815;28;19912;-78
2022/03/14 06:15:24;;;;;;;;;;;5.70;99.90;;;;;;5092855;28;19912;-76
2022/03/14 06:17:49;;;;;;;;;;;5.70;99.90;;;;;;5093038;28;19908;-77
2022/03/14 06:20:15;;;;;;;;;;;5.70;99.90;;;;;;5092892;28;19931;-78
2022/03/14 06:22:42;;;;;;;;;;;5.70;99.90;;;;;;5097477;28;20692;-78
2022/03/14 06:25:08;;;;;;;;;;;5.70;99.90;;;;;;5099268;28;19908;-78
2022/03/14 06:27:33;;;;;;;;;;;5.80;99.90;;;;;;5099068;28;20336;-79
2022/03/14 06:29:59;;;;;;;;;;;5.70;99.90;;;;;;5099431;28;19931;-78
2022/03/14 06:32:25;;;;;;;;;;;5.70;99.90;;;;;;5097580;28;19909;-76
2022/03/14 06:34:50;;;;;;;;;;;5.70;99.90;;;;;;5099624;28;20192;-78
2022/03/14 06:37:16;;;;;;;;;;;5.80;99.90;;;;;;5099904;28;19915;-77
2022/03/14 06:39:42;;;;;;;;;;;5.80;99.90;;;;;;5098950;28;19915;-78
2022/03/14 06:42:12;;;;;;;;;;;5.80;99.90;;;;;;5099484;28;20398;-78
2022/03/14 06:44:42;;;;;;;;;;;5.80;99.90;;;;;;5098943;28;19930;-78
2022/03/14 06:47:09;;;;;;;;;;;5.90;99.90;;;;;;5099300;28;19908;-77
2022/03/14 06:49:39;;;;;;;;;;;5.90;99.90;;;;;;5098636;28;20254;-77
2022/03/14 06:52:05;;;;;;;;;;;5.90;99.90;;;;;;5099272;28;20300;-77
2022/03/14 06:54:31;;;;;;;;;;;5.90;99.90;;;;;;5098456;28;19916;-77
2022/03/14 06:56:57;;;;;;;;;;;6.00;99.90;;;;;;5101029;28;19999;-78
2022/03/14 06:59:23;;;;;;;;;;;6.00;99.90;;;;;;5098724;28;20311;-77
2022/03/14 07:01:48;;;;;;;;;;;6.00;99.90;;;;;;5098980;28;19920;-77
2022/03/14 07:04:14;;;;;;;;;;;6.10;99.90;;;;;;5099632;28;19950;-77
2022/03/14 07:06:40;;;;;;;;;;;6.20;99.90;;;;;;5098685;28;19912;-77
2022/03/14 07:09:05;;;;;;;;;;;6.20;99.90;;;;;;5098952;28;20353;-78
2022/03/14 07:11:31;;;;;;;;;;;6.30;99.90;;;;;;5098682;28;19912;-78
2022/03/14 07:13:57;;;;;;;;;;;6.40;99.90;;;;;;5099056;28;19912;-79
2022/03/14 07:16:23;;;;;;;;;;;6.40;99.90;;;;;;5099116;28;20302;-79
2022/03/14 07:18:48;;;;;;;;;;;6.50;99.90;;;;;;5098465;28;19963;-78
2022/03/14 07:21:14;;;;;;;;;;;6.60;99.90;;;;;;5099106;28;19915;-79
2022/03/14 07:23:39;;;;;;;;;;;6.60;99.90;;;;;;5098506;28;19908;-78
2022/03/14 07:26:05;;;;;;;;;;;6.70;99.90;;;;;;5107474;28;19909;-78
2022/03/14 07:28:30;;;;;;;;;;;6.80;99.90;;;;;;5098485;28;20369;-79
2022/03/14 07:30:56;;;;;;;;;;;6.80;99.90;;;;;;5098641;28;20288;-80
2022/03/14 07:33:22;;;;;;;;;;;6.80;99.90;;;;;;5097180;28;19916;-78
2022/03/14 07:35:48;;;;;;;;;;;6.80;99.90;;;;;;5095122;28;19995;-78
2022/03/14 07:38:13;;;;;;;;;;;6.80;99.90;;;;;;5095342;28;19908;-78
2022/03/14 07:40:39;;;;;;;;;;;6.80;99.90;;;;;;5095132;28;20353;-78
2022/03/14 07:43:05;;;;;;;;;;;6.90;99.90;;;;;;5095626;28;19908;-78
2022/03/14 07:45:30;;;;;;;;;;;6.90;99.90;;;;;;5096889;28;19980;-76
2022/03/14 07:47:57;;;;;;;;;;;6.90;99.90;;;;;;5095441;28;19915;-83
2022/03/14 07:50:23;;;;;;;;;;;6.90;99.90;;;;;;5094948;28;20430;-79
2022/03/14 07:52:49;;;;;;;;;;;6.90;99.90;;;;;;5094708;28;19908;-79
2022/03/14 07:55:15;;;;;;;;;;;7.00;99.90;;;;;;5093960;28;19923;-79
2022/03/14 07:57:41;;;;;;;;;;;6.90;99.90;;;;;;5092014;28;20361;-79
2022/03/14 08:00:08;;;;;;;;;;;7.00;99.90;;;;;;5094166;28;19920;-79
2022/03/14 08:02:34;;;;;;;;;;;6.90;99.90;;;;;;5094812;28;19915;-79
2022/03/14 08:04:59;;;;;;;;;;;6.90;99.90;;;;;;5095234;28;19908;-79
2022/03/14 08:07:28;;;;;;;;;;;6.90;99.90;;;;;;5095431;28;20375;-78
2022/03/14 08:09:54;;;;;;;;;;;6.90;99.90;;;;;;5094463;28;19977;-78
2022/03/14 08:12:21;;;;;;;;;;;6.80;99.90;;;;;;5094964;28;19912;-79
2022/03/14 08:14:47;;;;;;;;;;;6.90;99.90;;;;;;5094454;28;20238;-78
2022/03/14 08:17:13;;;;;;;;;;;6.80;99.90;;;;;;5094685;28;19919;-79
2022/03/14 08:19:39;;;;;;;;;;;6.80;99.90;;;;;;5094107;28;20007;-78
2022/03/14 08:22:04;;;;;;;;;;;6.80;99.90;;;;;;5095041;28;19908;-79
2022/03/14 08:24:30;;;;;;;;;;;6.80;99.90;;;;;;5094589;28;19915;-78
2022/03/14 08:26:56;;;;;;;;;;;6.80;99.90;;;;;;5094881;28;19908;-79
2022/03/14 08:29:22;;;;;;;;;;;6.70;99.90;;;;;;5094458;28;19908;-79
2022/03/14 08:31:48;;;;;;;;;;;6.70;99.90;;;;;;5093888;28;20306;-80
2022/03/14 08:34:13;;;;;;;;;;;6.60;99.90;;;;;;5094306;28;19918;-80
2022/03/14 08:36:40;;;;;;;;;;;6.70;99.90;;;;;;5093937;28;19912;-80
2022/03/14 08:39:09;;;;;;;;;;;6.60;99.90;;;;;;5094742;28;19912;-80
2022/03/14 08:41:36;;;;;;;;;;;6.60;99.90;;;;;;5102120;28;19915;-78
2022/03/14 08:44:06;;;;;;;;;;;6.60;99.90;;;;;;5104809;28;19915;-79
2022/03/14 08:46:32;;;;;;;;;;;6.60;99.90;;;;;;5094083;28;19919;-78
2022/03/14 08:48:58;;;;;;;;;;;6.60;99.90;;;;;;5094144;28;19909;-84
2022/03/14 08:51:24;;;;;;;;;;;6.60;99.90;;;;;;5093053;28;19916;-83
2022/03/14 08:53:50;;;;;;;;;;;6.60;99.90;;;;;;5089303;28;20268;-83
2022/03/14 08:56:15;;;;;;;;;;;6.50;99.90;;;;;;5093954;28;19964;-84
2022/03/14 08:58:41;;;;;;;;;;;6.50;99.90;;;;;;5092715;28;19969;-84
2022/03/14 09:01:07;;;;;;;;;;;6.50;99.90;;;;;;5094841;28;19920;-83
2022/03/14 09:03:32;;;;;;;;;;;6.40;99.90;;;;;;5092709;28;19912;-80
2022/03/14 09:05:58;;;;;;;;;;;6.40;99.90;;;;;;5094112;28;19908;-84
2022/03/14 09:08:31;;;;;;;;;;;6.40;99.90;;;;;;5094193;28;20017;-91
2022/03/14 09:11:01;;;;;;;;;;;6.40;99.90;;;;;;5097375;28;20379;-90
2022/03/14 09:13:30;;;;;;;;;;;6.40;99.90;;;;;;5095192;28;19912;-92
2022/03/14 09:15:55;;;;;;;;;;;6.40;99.90;;;;;;5093911;28;19912;-92
2022/03/14 09:18:21;;;;;;;;;;;6.30;99.90;;;;;;5096079;28;19912;-89
2022/03/14 09:20:48;;;;;;;;;;;6.40;99.90;;;;;;5092869;28;19915;-85
2022/03/14 09:23:18;;;;;;;;;;;6.30;99.90;;;;;;5093561;28;20003;-83
2022/03/14 09:25:44;;;;;;;;;;;6.40;99.90;;;;;;5093119;28;19908;-82
2022/03/14 09:28:10;;;;;;;;;;;6.40;99.90;;;;;;5093416;28;20318;-82
2022/03/14 09:30:35;;;;;;;;;;;6.40;99.90;;;;;;5093046;28;19908;-79
2022/03/14 09:33:01;;;;;;;;;;;6.40;99.90;;;;;;5093059;28;19916;-80
2022/03/14 09:35:26;;;;;;;;;;;6.50;99.90;;;;;;5093373;28;19916;-81
2022/03/14 09:37:52;;;;;;;;;;;6.50;99.90;;;;;;5092905;28;19930;-81
2022/03/14 09:40:19;;;;;;;;;;;6.50;99.90;;;;;;5092665;28;20392;-82
2022/03/14 09:42:46;;;;;;;;;;;6.60;99.90;;;;;;5093139;28;19909;-82
2022/03/14 09:45:14;;;;;;;;;;;6.60;99.90;;;;;;5092908;28;20284;-82
2022/03/14 09:47:41;;;;;;;;;;;6.60;99.90;;;;;;5092185;28;19931;-83
2022/03/14 09:50:14;;;;;;;;;;;6.70;99.90;;;;;;5091178;28;19916;-81
2022/03/14 09:52:41;;;;;;;;;;;6.70;99.90;;;;;;5092853;28;19912;-81
2022/03/14 09:55:08;;;;;;;;;;;6.70;99.90;;;;;;5093256;28;19912;-81
2022/03/14 09:57:35;;;;;;;;;;;6.70;99.90;;;;;;5092285;28;19973;-81
2022/03/14 10:00:00;;;;;;;;;;;6.80;99.90;;;;;;5094480;28;19909;-80
2022/03/14 10:02:26;;;;;;;;;;;6.90;99.90;;;;;;5092917;28;20019;-80
2022/03/14 10:04:52;;;;;;;;;;;6.90;99.90;;;;;;5092572;28;19915;-80
2022/03/14 10:07:18;;;;;;;;;;;7.00;99.90;;;;;;5093070;28;19934;-80
2022/03/14 10:09:44;;;;;;;;;;;7.10;99.90;;;;;;5092344;28;20003;-80
2022/03/14 10:12:12;;;;;;;;;;;7.20;99.90;;;;;;5092874;28;19985;-80
2022/03/14 10:14:37;;;;;;;;;;;7.30;99.90;;;;;;5092358;28;20137;-78
2022/03/14 10:17:03;;;;;;;;;;;7.30;99.90;;;;;;5092976;28;19962;-79
2022/03/14 10:19:34;;;;;;;;;;;7.40;99.90;;;;;;5092807;28;19927;-79
2022/03/14 10:22:16;;;;;;;;;;;7.40;99.90;;;;;;5092003;28;19915;-79
2022/03/14 10:24:43;;;;;;;;;;;7.40;99.90;;;;;;5092138;28;19912;-79
2022/03/14 10:27:09;;;;;;;;;;;7.50;99.90;;;;;;5092882;28;19908;-80
2022/03/14 10:29:35;;;;;;;;;;;7.40;99.90;;;;;;5092708;28;19909;-79
2022/03/14 10:32:02;;;;;;;;;;;7.40;99.90;;;;;;5092030;28;19918;-79
2022/03/14 10:34:27;;;;;;;;;;;7.40;99.90;;;;;;5092804;28;19962;-79
2022/03/14 10:36:54;;;;;;;;;;;7.40;99.90;;;;;;5092000;28;20269;-79
2022/03/14 10:39:20;;;;;;;;;;;7.40;99.90;;;;;;5092782;28;19955;-79
2022/03/14 10:42:06;;;;;;;;;;;7.50;99.90;;;;;;5091940;28;19947;-79
2022/03/14 10:44:32;;;;;;;;;;;7.60;99.90;;;;;;5092722;28;19915;-79
2022/03/14 10:47:02;;;;;;;;;;;7.70;99.90;;;;;;5090864;28;20076;-78
2022/03/14 10:49:29;;;;;;;;;;;7.80;99.90;;;;;;5092653;28;19978;-79
2022/03/14 10:51:59;;;;;;;;;;;8.00;99.90;;;;;;5092130;28;19915;-79
2022/03/14 10:54:25;;;;;;;;;;;8.00;99.90;;;;;;5092509;28;19970;-79
2022/03/14 10:57:09;;;;;;;;;;;8.20;99.90;;;;;;5091815;28;19962;-78
2022/03/14 10:59:39;;;;;;;;;;;8.40;99.90;;;;;;5092638;28;20002;-79
2022/03/14 11:02:06;;;;;;;;;;;8.40;99.90;;;;;;5092286;28;19954;-79
2022/03/14 11:04:41;;;;;;;;;;;8.50;99.90;;;;;;5090922;28;20325;-79
2022/03/14 11:07:06;;;;;;;;;;;8.50;99.90;;;;;;5092311;28;19914;-79
2022/03/14 11:09:38;;;;;;;;;;;8.60;99.90;;;;;;5096230;28;20006;-79
2022/03/14 11:12:08;;;;;;;;;;;8.60;99.90;;;;;;5095675;28;19915;-79
2022/03/14 11:14:34;;;;;;;;;;;8.50;99.90;;;;;;5096854;28;20002;-78
2022/03/14 11:17:13;;;;;;;;;;;8.50;99.90;;;;;;5101637;28;19919;-79
2022/03/14 11:19:40;;;;;;;;;;;8.50;99.90;;;;;;5095657;28;19951;-78
2022/03/14 11:22:08;;;;;;;;;;;8.50;99.90;;;;;;5095651;28;19962;-79
2022/03/14 11:24:34;;;;;;;;;;;8.60;99.90;;;;;;5095987;28;20429;-78
2022/03/14 11:26:59;;;;;;;;;;;8.70;99.90;;;;;;5094386;28;19920;-78
2022/03/14 11:29:26;;;;;;;;;;;8.60;99.90;;;;;;5094967;28;19909;-78
2022/03/14 11:31:55;;;;;;;;;;;8.70;99.90;;;;;;5099463;28;20357;-78
2022/03/14 11:34:26;;;;;;;;;;;8.70;99.90;;;;;;5107207;28;19912;-78
2022/03/14 11:36:53;;;;;;;;;;;8.80;99.90;;;;;;5095149;28;19939;-79
2022/03/14 11:39:20;;;;;;;;;;;8.90;99.90;;;;;;5095276;28;19953;-80
2022/03/14 11:41:46;;;;;;;;;;;9.10;99.90;;;;;;5094467;28;19908;-78
2022/03/14 11:44:12;;;;;;;;;;;9.20;99.90;;;;;;5094861;28;19912;-79
2022/03/14 11:46:38;;;;;;;;;;;9.30;99.90;;;;;;5095002;28;19912;-79
2022/03/14 11:49:13;;;;;;;;;;;9.40;99.90;;;;;;5093880;28;19908;-78
2022/03/14 11:51:40;;;;;;;;;;;9.50;99.90;;;;;;5094775;28;19908;-78
2022/03/14 11:54:12;;;;;;;;;;;9.60;99.90;;;;;;5094611;28;19920;-78
2022/03/14 11:56:38;;;;;;;;;;;9.60;99.90;;;;;;5094566;28;20007;-78
2022/03/14 11:59:10;;;;;;;;;;;9.80;99.90;;;;;;5093994;28;19953;-78
2022/03/14 12:01:48;;;;;;;;;;;10.00;99.90;;;;;;5094295;28;19943;-78
2022/03/14 12:04:37;;;;;;;;;;;10.10;99.90;;;;;;5094446;28;19908;-78
2022/03/14 12:07:06;;;;;;;;;;;10.20;99.90;;;;;;5087661;28;19938;-78
2022/03/14 12:09:33;;;;;;;;;;;10.20;99.90;;;;;;5094556;28;19953;-78
2022/03/14 12:12:22;;;;;;;;;;;10.10;99.90;;;;;;5093875;28;20430;-78
2022/03/14 12:14:57;;;;;;;;;;;10.00;99.90;;;;;;5087805;28;19923;-78
2022/03/14 12:17:24;;;;;;;;;;;10.00;99.90;;;;;;5093109;28;19908;-79
2022/03/14 12:19:51;;;;;;;;;;;9.90;99.90;;;;;;5091307;28;19908;-78
2022/03/14 12:22:41;;;;;;;;;;;9.70;99.90;;;;;;5094321;28;19908;-78
2022/03/14 12:25:10;;;;;;;;;;;9.70;99.90;;;;;;5094441;28;19915;-78
2022/03/14 12:27:37;;;;;;;;;;;9.70;99.90;;;;;;5094160;28;19914;-78
2022/03/14 12:30:27;;;;;;;;;;;9.60;99.90;;;;;;5095619;28;19908;-78
2022/03/14 12:32:53;;;;;;;;;;;9.60;99.90;;;;;;5097074;28;20353;-79
2022/03/14 12:35:21;;;;;;;;;;;9.60;99.90;;;;;;5098411;28;19916;-78
2022/03/14 12:37:54;;;;;;;;;;;9.50;99.90;;;;;;5093165;28;20428;-78
2022/03/14 12:40:19;;;;;;;;;;;9.50;99.90;;;;;;5093718;28;19908;-78
2022/03/14 12:42:46;;;;;;;;;;;9.50;99.90;;;;;;5093042;28;19908;-78
2022/03/14 12:45:13;;;;;;;;;;;9.50;99.90;;;;;;5093808;28;19908;-79
2022/03/14 12:47:40;;;;;;;;;;;9.50;99.90;;;;;;5094216;28;19908;-79
2022/03/14 12:50:06;;;;;;;;;;;9.50;99.90;;;;;;5092879;28;19908;-78
2022/03/14 12:52:32;;;;;;;;;;;9.60;99.90;;;;;;5094049;28;20269;-78
2022/03/14 12:55:16;;;;;;;;;;;9.60;99.90;;;;;;5093119;28;20002;-77
2022/03/14 12:57:42;;;;;;;;;;;9.60;99.90;;;;;;5091855;28;19951;-77
2022/03/14 13:00:10;;;;;;;;;;;9.80;99.90;;;;;;5092982;28;19944;-77
2022/03/14 13:02:35;;;;;;;;;;;9.90;99.90;;;;;;5093205;28;19995;-77
2022/03/14 13:05:02;;;;;;;;;;;10.10;99.90;;;;;;5092559;28;19989;-78
2022/03/14 13:07:28;;;;;;;;;;;10.30;99.90;;;;;;5093792;28;20022;-77
2022/03/14 13:09:54;;;;;;;;;;;10.30;99.90;;;;;;5092585;28;19908;-77
2022/03/14 13:12:20;;;;;;;;;;;10.30;99.90;;;;;;5091663;28;20515;-77
2022/03/14 13:14:46;;;;;;;;;;;10.40;99.90;;;;;;5091309;28;19919;-77
2022/03/14 13:17:20;;;;;;;;;;;10.30;99.90;;;;;;5093080;28;20379;-78
2022/03/14 13:19:46;;;;;;;;;;;10.30;99.90;;;;;;5092015;28;19916;-77
2022/03/14 13:22:12;;;;;;;;;;;10.30;99.90;;;;;;5093128;28;20004;-77
2022/03/14 13:24:38;;;;;;;;;;;10.30;99.90;;;;;;5093374;28;19917;-78
2022/03/14 13:27:04;;;;;;;;;;;10.40;99.90;;;;;;5092655;28;19904;-78
2022/03/14 13:29:35;;;;;;;;;;;10.40;99.90;;;;;;5093476;28;19915;-79
2022/03/14 13:32:01;;;;;;;;;;;10.50;99.90;;;;;;5091610;28;20007;-78
2022/03/14 13:34:28;;;;;;;;;;;10.50;99.90;;;;;;5093260;28;20014;-78
2022/03/14 13:37:04;;;;;;;;;;;10.50;99.90;;;;;;5092645;28;19912;-78
2022/03/14 13:39:29;;;;;;;;;;;10.50;99.90;;;;;;5093159;28;20019;-78
2022/03/14 13:41:58;;;;;;;;;;;10.40;99.90;;;;;;5093058;28;20356;-78
2022/03/14 13:44:24;;;;;;;;;;;10.50;99.90;;;;;;5092004;28;19908;-79
2022/03/14 13:46:59;;;;;;;;;;;10.40;99.90;;;;;;5092740;28;19908;-78
2022/03/14 13:49:25;;;;;;;;;;;10.30;99.90;;;;;;5093320;28;20292;-78
2022/03/14 13:51:51;;;;;;;;;;;10.30;99.90;;;;;;5093257;28;19919;-78
2022/03/14 13:54:22;;;;;;;;;;;10.30;99.90;;;;;;5092803;28;19912;-78
2022/03/14 13:56:49;;;;;;;;;;;10.40;99.90;;;;;;5092425;28;19912;-78
2022/03/14 13:59:32;;;;;;;;;;;10.50;99.90;;;;;;5092803;28;19908;-78
2022/03/14 14:02:11;;;;;;;;;;;10.60;99.90;;;;;;5092220;28;20285;-78
2022/03/14 14:04:36;;;;;;;;;;;10.60;99.90;;;;;;5093177;28;20013;-78
2022/03/14 14:07:11;;;;;;;;;;;10.60;99.90;;;;;;5092199;28;19908;-78
2022/03/14 14:09:40;;;;;;;;;;;10.60;99.90;;;;;;5092905;28;19908;-78
2022/03/14 14:12:06;;;;;;;;;;;10.50;99.90;;;;;;5091648;28;20621;-78
2022/03/14 14:14:32;;;;;;;;;;;10.50;99.90;;;;;;5092797;28;20053;-78
2022/03/14 14:17:10;;;;;;;;;;;10.50;99.90;;;;;;5092257;28;19953;-78
2022/03/14 14:19:36;;;;;;;;;;;10.50;99.90;;;;;;5092438;28;19914;-78
2022/03/14 14:22:02;;;;;;;;;;;10.50;99.90;;;;;;5092153;28;19908;-78
2022/03/14 14:24:29;;;;;;;;;;;10.60;99.90;;;;;;5092700;28;19916;-78
2022/03/14 14:26:55;;;;;;;;;;;10.60;99.90;;;;;;5091855;28;20375;-78